createdAt,value
2023-04-05T00:00:05.770Z,25.22
2023-04-05T00:01:05.773Z,25.25
2023-04-05T00:02:05.794Z,25.22
2023-04-05T00:03:05.914Z,25.21
2023-04-05T00:04:06.033Z,25.25
2023-04-05T00:05:05.913Z,25.25
2023-04-05T00:06:05.916Z,25.21
2023-04-05T00:07:06.037Z,25.20
2023-04-05T00:08:05.986Z,25.27
2023-04-05T00:09:06.044Z,25.26
2023-04-05T00:10:06.084Z,25.21
2023-04-05T00:11:06.119Z,25.21
2023-04-05T00:12:06.138Z,25.22
2023-04-05T00:13:06.143Z,25.20
2023-04-05T00:14:06.230Z,25.22
2023-04-05T00:15:06.218Z,25.18
2023-04-05T00:16:06.253Z,25.26
2023-04-05T00:17:06.378Z,25.30
2023-04-05T00:18:06.351Z,25.25
2023-04-05T00:19:06.385Z,25.26
2023-04-05T00:20:06.462Z,25.27
2023-04-05T00:21:06.459Z,25.22
2023-04-05T00:22:06.513Z,25.29
2023-04-05T00:23:06.523Z,25.31
2023-04-05T00:24:06.596Z,25.27
2023-04-05T00:25:06.621Z,25.31
2023-04-05T00:26:06.673Z,25.16
2023-04-05T00:27:06.713Z,25.27
2023-04-05T00:28:06.726Z,25.31
2023-04-05T00:29:06.743Z,25.31
2023-04-05T00:30:06.849Z,25.25
2023-04-05T00:31:06.889Z,25.23
2023-04-05T00:32:06.914Z,25.27
2023-04-05T00:33:07.023Z,25.32
2023-04-05T00:34:07.014Z,25.42
2023-04-05T00:35:07.066Z,25.47
2023-04-05T00:36:07.187Z,25.40
2023-04-05T00:37:07.190Z,25.44
2023-04-05T00:38:07.251Z,25.49
2023-04-05T00:39:07.254Z,25.51
2023-04-05T00:40:07.312Z,25.55
2023-04-05T00:41:07.362Z,25.44
2023-04-05T00:42:07.451Z,25.55
2023-04-05T00:43:07.444Z,25.52
2023-04-05T00:44:08.520Z,25.50
2023-04-05T00:45:07.599Z,25.52
2023-04-05T00:46:07.847Z,25.53
2023-04-05T00:47:07.697Z,25.50
2023-04-05T00:48:07.759Z,25.56
2023-04-05T00:49:07.794Z,25.50
2023-04-05T00:50:07.826Z,25.42
2023-04-05T00:51:07.890Z,25.56
2023-04-05T00:52:08.011Z,25.58
2023-04-05T00:53:08.032Z,25.53
2023-04-05T00:54:08.097Z,25.50
2023-04-05T00:55:08.152Z,25.52
2023-04-05T00:56:08.248Z,25.49
2023-04-05T00:57:08.254Z,25.53
2023-04-05T00:58:08.306Z,25.49
2023-04-05T00:59:08.415Z,25.50
2023-04-05T01:00:08.405Z,25.47
2023-04-05T01:01:08.513Z,25.56
2023-04-05T01:02:08.558Z,25.52
2023-04-05T01:03:08.587Z,25.49
2023-04-05T01:04:08.773Z,25.54
2023-04-05T01:05:08.710Z,25.54
2023-04-05T01:06:09.842Z,25.50
2023-04-05T01:07:08.793Z,25.60
2023-04-05T01:08:08.886Z,25.57
2023-04-05T01:09:08.917Z,25.54
2023-04-05T01:10:08.942Z,25.57
2023-04-05T01:11:08.996Z,25.53
2023-04-05T01:12:09.080Z,25.54
2023-04-05T01:13:09.110Z,25.47
2023-04-05T01:14:09.232Z,25.50
2023-04-05T01:15:09.233Z,25.51
2023-04-05T01:16:09.302Z,25.51
2023-04-05T01:17:09.348Z,25.57
2023-04-05T01:18:09.391Z,25.60
2023-04-05T01:19:09.469Z,25.62
2023-04-05T01:20:09.530Z,25.59
2023-04-05T01:21:09.580Z,25.63
2023-04-05T01:22:09.634Z,25.55
2023-04-05T01:23:09.694Z,25.56
2023-04-05T01:24:09.776Z,25.56
2023-04-05T01:25:09.805Z,25.62
2023-04-05T01:26:09.831Z,25.59
2023-04-05T01:27:09.926Z,25.63
2023-04-05T01:28:09.985Z,25.54
2023-04-05T01:29:10.045Z,25.59
2023-04-05T01:30:10.095Z,25.60
2023-04-05T01:31:10.193Z,25.55
2023-04-05T01:32:10.215Z,25.58
2023-04-05T01:33:10.358Z,25.64
2023-04-05T01:34:10.331Z,25.64
2023-04-05T01:35:10.369Z,25.51
2023-04-05T01:36:10.542Z,25.63
2023-04-05T01:37:10.514Z,25.59
2023-04-05T01:38:10.520Z,25.62
2023-04-05T01:39:10.594Z,25.60
2023-04-05T01:40:10.699Z,25.62
2023-04-05T01:41:10.751Z,25.62
2023-04-05T01:42:10.817Z,25.60
2023-04-05T01:43:10.860Z,25.71
2023-04-05T01:44:10.911Z,25.57
2023-04-05T01:45:11.043Z,25.53
2023-04-05T01:46:11.148Z,25.63
2023-04-05T01:47:11.207Z,25.63
2023-04-05T01:48:11.192Z,25.60
2023-04-05T01:49:11.214Z,25.59
2023-04-05T01:50:11.322Z,25.54
2023-04-05T01:51:11.381Z,25.60
2023-04-05T01:52:11.403Z,25.64
2023-04-05T01:53:11.488Z,25.58
2023-04-05T01:54:11.529Z,25.58
2023-04-05T01:55:11.676Z,25.67
2023-04-05T01:56:11.661Z,25.65
2023-04-05T01:57:11.730Z,25.69
2023-04-05T01:58:11.783Z,25.69
2023-04-05T01:59:11.851Z,25.68
2023-04-05T02:00:11.868Z,25.60
2023-04-05T02:01:12.058Z,25.66
2023-04-05T02:02:11.959Z,25.61
2023-04-05T02:03:12.213Z,25.68
2023-04-05T02:04:12.125Z,25.65
2023-04-05T02:05:12.206Z,25.53
2023-04-05T02:06:12.234Z,25.57
2023-04-05T02:07:12.314Z,25.55
2023-04-05T02:08:12.344Z,25.58
2023-04-05T02:09:12.420Z,25.58
2023-04-05T02:10:12.491Z,25.60
2023-04-05T02:11:12.550Z,25.60
2023-04-05T02:12:12.702Z,25.57
2023-04-05T02:13:12.656Z,25.55
2023-04-05T02:14:12.706Z,25.58
2023-04-05T02:15:12.774Z,25.52
2023-04-05T02:16:12.838Z,25.54
2023-04-05T02:17:12.852Z,25.50
2023-04-05T02:18:12.896Z,25.55
2023-04-05T02:19:12.920Z,25.50
2023-04-05T02:20:13.008Z,25.59
2023-04-05T02:21:13.074Z,25.52
2023-04-05T02:22:13.127Z,25.43
2023-04-05T02:23:13.109Z,25.47
2023-04-05T02:24:13.141Z,25.52
2023-04-05T02:25:13.183Z,25.54
2023-04-05T02:26:13.231Z,25.50
2023-04-05T02:27:13.256Z,25.55
2023-04-05T02:28:13.308Z,25.50
2023-04-05T02:29:13.388Z,25.58
2023-04-05T02:30:13.372Z,25.57
2023-04-05T02:31:13.534Z,25.58
2023-04-05T02:32:13.495Z,25.57
2023-04-05T02:33:13.509Z,25.61
2023-04-05T02:34:13.468Z,25.67
2023-04-05T02:35:13.476Z,25.67
2023-04-05T02:36:13.483Z,25.70
2023-04-05T02:37:13.550Z,25.70
2023-04-05T02:38:13.477Z,25.74
2023-04-05T02:39:13.485Z,25.70
2023-04-05T02:40:13.545Z,25.76
2023-04-05T02:41:13.570Z,25.68
2023-04-05T02:42:13.534Z,25.68
2023-04-05T02:43:13.566Z,25.77
2023-04-05T02:44:13.531Z,25.80
2023-04-05T02:45:13.599Z,25.77
2023-04-05T02:46:13.644Z,25.77
2023-04-05T02:47:13.532Z,25.77
2023-04-05T02:48:13.684Z,25.75
2023-04-05T02:49:13.573Z,25.77
2023-04-05T02:50:13.547Z,25.69
2023-04-05T02:51:13.629Z,25.73
2023-04-05T02:52:13.618Z,25.77
2023-04-05T02:53:13.646Z,25.67
2023-04-05T02:54:13.661Z,25.72
2023-04-05T02:55:13.656Z,25.80
2023-04-05T02:56:13.677Z,25.71
2023-04-05T02:57:13.677Z,25.80
2023-04-05T02:58:13.710Z,25.81
2023-04-05T02:59:13.767Z,25.84
2023-04-05T03:00:13.691Z,25.81
2023-04-05T03:01:13.716Z,25.84
2023-04-05T03:02:13.705Z,25.87
2023-04-05T03:03:13.764Z,25.79
2023-04-05T03:04:13.726Z,25.84
2023-04-05T03:05:13.719Z,25.76
2023-04-05T03:06:13.700Z,25.79
2023-04-05T03:07:13.689Z,25.76
2023-04-05T03:08:13.744Z,25.83
2023-04-05T03:09:13.688Z,25.76
2023-04-05T03:10:13.684Z,25.73
2023-04-05T03:11:13.722Z,25.80
2023-04-05T03:12:13.737Z,25.79
2023-04-05T03:13:13.689Z,25.73
2023-04-05T03:14:13.695Z,25.72
2023-04-05T03:15:13.657Z,25.83
2023-04-05T03:16:13.713Z,25.77
2023-04-05T03:17:13.663Z,25.81
2023-04-05T03:18:13.711Z,25.77
2023-04-05T03:19:13.701Z,25.73
2023-04-05T03:20:13.669Z,25.80
2023-04-05T03:21:13.694Z,25.74
2023-04-05T03:22:13.660Z,25.69
2023-04-05T03:23:13.682Z,25.76
2023-04-05T03:24:13.713Z,25.72
2023-04-05T03:25:13.693Z,25.81
2023-04-05T03:26:13.700Z,25.81
2023-04-05T03:27:13.682Z,25.84
2023-04-05T03:28:13.700Z,25.77
2023-04-05T03:29:13.750Z,25.77
2023-04-05T03:30:13.706Z,25.74
2023-04-05T03:31:13.806Z,25.84
2023-04-05T03:32:13.747Z,25.77
2023-04-05T03:33:13.772Z,25.89
2023-04-05T03:34:13.751Z,25.90
2023-04-05T03:35:13.761Z,25.84
2023-04-05T03:36:13.759Z,25.93
2023-04-05T03:37:13.804Z,25.85
2023-04-05T03:38:13.789Z,25.81
2023-04-05T03:39:13.818Z,25.83
2023-04-05T03:40:13.809Z,25.83
2023-04-05T03:41:13.821Z,25.74
2023-04-05T03:42:13.800Z,25.82
2023-04-05T03:43:13.813Z,25.84
2023-04-05T03:44:13.890Z,25.85
2023-04-05T03:45:13.847Z,25.86
2023-04-05T03:46:13.883Z,25.82
2023-04-05T03:47:13.843Z,25.81
2023-04-05T03:48:13.852Z,25.88
2023-04-05T03:49:13.888Z,25.86
2023-04-05T03:50:13.898Z,25.94
2023-04-05T03:51:13.833Z,25.92
2023-04-05T03:52:13.841Z,25.86
2023-04-05T03:53:13.863Z,25.90
2023-04-05T03:54:13.859Z,25.90
2023-04-05T03:55:13.867Z,25.88
2023-04-05T03:56:13.798Z,25.92
2023-04-05T03:57:13.799Z,25.87
2023-04-05T03:58:13.853Z,25.90
2023-04-05T03:59:13.935Z,25.85
2023-04-05T04:00:13.825Z,25.92
2023-04-05T04:01:13.805Z,25.92
2023-04-05T04:02:13.815Z,25.88
2023-04-05T04:03:13.813Z,25.59
2023-04-05T04:04:13.765Z,25.57
2023-04-05T04:05:13.933Z,25.08
2023-04-05T04:06:13.881Z,24.98
2023-04-05T04:07:13.773Z,24.79
2023-04-05T04:08:13.770Z,24.58
2023-04-05T04:09:13.859Z,24.38
2023-04-05T04:10:13.802Z,24.13
2023-04-05T04:11:13.863Z,23.98
2023-04-05T04:12:13.875Z,23.76
2023-04-05T04:13:13.859Z,23.71
2023-04-05T04:14:13.924Z,23.45
2023-04-05T04:15:14.031Z,23.35
2023-04-05T04:16:14.028Z,23.19
2023-04-05T04:17:14.006Z,23.13
2023-04-05T04:18:14.051Z,22.94
2023-04-05T04:19:14.218Z,22.94
2023-04-05T04:20:14.164Z,22.83
2023-04-05T04:21:14.187Z,22.61
2023-04-05T04:22:14.247Z,22.58
2023-04-05T04:23:14.286Z,22.38
2023-04-05T04:24:14.399Z,22.37
2023-04-05T04:25:14.417Z,22.32
2023-04-05T04:26:14.480Z,22.30
2023-04-05T04:27:14.509Z,22.14
2023-04-05T04:28:14.601Z,22.08
2023-04-05T04:29:14.639Z,21.86
2023-04-05T04:30:14.832Z,21.79
2023-04-05T04:31:14.813Z,21.65
2023-04-05T04:32:14.828Z,21.72
2023-04-05T04:33:14.928Z,21.90
2023-04-05T04:34:14.945Z,21.85
2023-04-05T04:35:14.999Z,21.87
2023-04-05T04:36:15.059Z,21.92
2023-04-05T04:37:15.125Z,22.03
2023-04-05T04:38:15.110Z,22.02
2023-04-05T04:39:15.180Z,22.07
2023-04-05T04:40:15.192Z,22.04
2023-04-05T04:41:15.290Z,22.22
2023-04-05T04:42:15.304Z,22.29
2023-04-05T04:43:15.316Z,22.19
2023-04-05T04:44:15.408Z,22.13
2023-04-05T04:45:15.380Z,22.18
2023-04-05T04:46:15.517Z,22.24
2023-04-05T04:47:15.482Z,22.35
2023-04-05T04:48:15.556Z,22.28
2023-04-05T04:49:15.564Z,22.31
2023-04-05T04:50:15.595Z,22.29
2023-04-05T04:51:15.608Z,22.41
2023-04-05T04:52:15.688Z,22.44
2023-04-05T04:53:15.685Z,22.44
2023-04-05T04:54:15.736Z,22.49
2023-04-05T04:55:15.740Z,22.44
2023-04-05T04:56:15.819Z,22.44
2023-04-05T04:57:15.825Z,22.46
2023-04-05T04:58:15.944Z,22.49
2023-04-05T04:59:15.986Z,22.49
2023-04-05T05:00:15.889Z,22.53
2023-04-05T05:01:15.992Z,22.48
2023-04-05T05:02:16.069Z,22.51
2023-04-05T05:03:16.029Z,22.58
2023-04-05T05:04:16.109Z,22.54
2023-04-05T05:05:16.071Z,22.60
2023-04-05T05:06:16.096Z,22.61
2023-04-05T05:07:16.142Z,22.58
2023-04-05T05:08:16.980Z,22.60
2023-04-05T05:09:16.209Z,22.54
2023-04-05T05:10:16.286Z,22.63
2023-04-05T05:11:16.255Z,22.62
2023-04-05T05:12:16.256Z,22.67
2023-04-05T05:13:16.335Z,22.68
2023-04-05T05:14:16.335Z,22.70
2023-04-05T05:15:16.352Z,22.71
2023-04-05T05:16:16.431Z,22.73
2023-04-05T05:17:16.402Z,22.71
2023-04-05T05:18:16.470Z,22.71
2023-04-05T05:19:16.517Z,22.77
2023-04-05T05:20:16.478Z,22.81
2023-04-05T05:21:16.531Z,22.83
2023-04-05T05:22:16.539Z,22.84
2023-04-05T05:23:16.600Z,22.91
2023-04-05T05:24:16.612Z,22.87
2023-04-05T05:25:16.583Z,22.86
2023-04-05T05:26:16.628Z,22.90
2023-04-05T05:27:16.681Z,22.89
2023-04-05T05:28:16.761Z,22.87
2023-04-05T05:29:16.799Z,22.89
2023-04-05T05:30:16.765Z,22.91
2023-04-05T05:31:16.809Z,22.94
2023-04-05T05:32:16.825Z,22.97
2023-04-05T05:33:16.861Z,22.97
2023-04-05T05:34:16.897Z,23.03
2023-04-05T05:35:16.917Z,23.00
2023-04-05T05:36:16.892Z,23.01
2023-04-05T05:37:17.007Z,23.01
2023-04-05T05:38:16.956Z,23.01
2023-04-05T05:39:16.965Z,23.04
2023-04-05T05:40:17.032Z,23.06
2023-04-05T05:41:17.026Z,23.05
2023-04-05T05:42:17.089Z,23.05
2023-04-05T05:43:17.036Z,23.02
2023-04-05T05:44:17.053Z,23.04
2023-04-05T05:45:17.117Z,22.99
2023-04-05T05:46:17.988Z,23.05
2023-04-05T05:47:17.113Z,23.04
2023-04-05T05:48:17.104Z,23.04
2023-04-05T05:49:17.195Z,23.06
2023-04-05T05:50:17.207Z,22.99
2023-04-05T05:51:17.196Z,23.01
2023-04-05T05:52:17.205Z,23.02
2023-04-05T05:53:17.254Z,23.01
2023-04-05T05:54:17.214Z,23.01
2023-04-05T05:55:17.217Z,23.07
2023-04-05T05:56:17.274Z,22.95
2023-04-05T05:57:17.271Z,22.98
2023-04-05T05:58:17.280Z,22.97
2023-04-05T05:59:17.348Z,23.00
2023-04-05T06:00:17.307Z,23.04
2023-04-05T06:01:17.298Z,23.07
2023-04-05T06:02:17.393Z,23.05
2023-04-05T06:03:17.381Z,23.07
2023-04-05T06:04:17.475Z,23.04
2023-04-05T06:05:17.426Z,23.07
2023-04-05T06:06:17.368Z,23.05
2023-04-05T06:07:17.424Z,23.07
2023-04-05T06:08:17.431Z,23.09
2023-04-05T06:09:17.435Z,23.07
2023-04-05T06:10:17.433Z,23.07
2023-04-05T06:11:17.449Z,23.13
2023-04-05T06:12:17.445Z,23.10
2023-04-05T06:13:17.493Z,23.07
2023-04-05T06:14:19.001Z,23.09
2023-04-05T06:15:17.535Z,23.11
2023-04-05T06:16:17.550Z,23.16
2023-04-05T06:17:17.621Z,23.11
2023-04-05T06:18:17.714Z,23.14
2023-04-05T06:19:17.614Z,23.13
2023-04-05T06:20:17.572Z,23.19
2023-04-05T06:21:17.616Z,23.17
2023-04-05T06:22:17.624Z,23.14
2023-04-05T06:23:17.624Z,23.19
2023-04-05T06:24:17.628Z,23.16
2023-04-05T06:25:18.287Z,23.16
2023-04-05T06:26:17.646Z,23.16
2023-04-05T06:27:17.648Z,23.13
2023-04-05T06:28:17.649Z,23.20
2023-04-05T06:29:17.664Z,23.20
2023-04-05T06:30:17.710Z,23.20
2023-04-05T06:31:17.881Z,23.15
2023-04-05T06:32:17.681Z,23.20
2023-04-05T06:33:17.696Z,23.21
2023-04-05T06:34:17.706Z,23.19
2023-04-05T06:35:17.758Z,23.26
2023-04-05T06:36:17.759Z,23.26
2023-04-05T06:37:17.768Z,23.27
2023-04-05T06:38:17.774Z,23.27
2023-04-05T06:39:17.779Z,23.29
2023-04-05T06:40:17.815Z,23.27
2023-04-05T06:41:17.792Z,23.32
2023-04-05T06:42:17.799Z,23.35
2023-04-05T06:43:17.801Z,23.33
2023-04-05T06:44:17.795Z,23.33
2023-04-05T06:45:17.877Z,23.39
2023-04-05T06:46:17.918Z,23.33
2023-04-05T06:47:17.891Z,23.33
2023-04-05T06:48:17.893Z,23.33
2023-04-05T06:49:17.920Z,23.29
2023-04-05T06:50:17.914Z,23.27
2023-04-05T06:51:17.914Z,23.29
2023-04-05T06:52:17.915Z,23.26
2023-04-05T06:53:17.923Z,23.27
2023-04-05T06:54:17.936Z,23.35
2023-04-05T06:55:17.968Z,23.28
2023-04-05T06:56:17.948Z,23.30
2023-04-05T06:57:17.959Z,23.28
2023-04-05T06:58:17.965Z,23.25
2023-04-05T06:59:17.982Z,23.28
2023-04-05T07:00:17.968Z,23.27
2023-04-05T07:01:17.977Z,23.25
2023-04-05T07:02:17.936Z,23.25
2023-04-05T07:03:17.967Z,23.22
2023-04-05T07:04:17.966Z,23.28
2023-04-05T07:05:17.942Z,23.24
2023-04-05T07:06:17.916Z,23.26
2023-04-05T07:07:17.927Z,23.23
2023-04-05T07:08:17.895Z,23.31
2023-04-05T07:09:18.107Z,23.27
2023-04-05T07:10:17.887Z,23.24
2023-04-05T07:11:17.909Z,23.21
2023-04-05T07:12:17.907Z,23.21
2023-04-05T07:13:17.950Z,23.21
2023-04-05T07:14:17.915Z,23.20
2023-04-05T07:15:17.927Z,23.23
2023-04-05T07:16:17.911Z,23.24
2023-04-05T07:17:17.893Z,23.24
2023-04-05T07:18:17.884Z,23.26
2023-04-05T07:19:17.891Z,23.21
2023-04-05T07:20:17.884Z,23.20
2023-04-05T07:21:17.963Z,23.24
2023-04-05T07:22:17.911Z,23.23
2023-04-05T07:23:18.304Z,23.23
2023-04-05T07:24:17.883Z,23.22
2023-04-05T07:25:17.876Z,23.20
2023-04-05T07:26:17.882Z,23.17
2023-04-05T07:27:17.902Z,23.19
2023-04-05T07:28:17.849Z,23.13
2023-04-05T07:29:17.856Z,23.17
2023-04-05T07:30:17.915Z,23.20
2023-04-05T07:31:17.927Z,23.13
2023-04-05T07:32:17.934Z,23.18
2023-04-05T07:33:17.958Z,23.21
2023-04-05T07:34:17.931Z,23.17
2023-04-05T07:35:17.950Z,23.16
2023-04-05T07:36:17.964Z,23.14
2023-04-05T07:37:18.217Z,23.15
2023-04-05T07:38:17.988Z,23.12
2023-04-05T07:39:17.988Z,23.12
2023-04-05T07:40:18.163Z,23.12
2023-04-05T07:41:17.987Z,23.09
2023-04-05T07:42:17.976Z,23.17
2023-04-05T07:43:18.003Z,23.08
2023-04-05T07:44:18.058Z,23.11
2023-04-05T07:45:18.113Z,23.14
2023-04-05T07:46:18.112Z,23.14
2023-04-05T07:47:18.031Z,23.12
2023-04-05T07:48:18.090Z,23.17
2023-04-05T07:49:18.108Z,23.18
2023-04-05T07:50:18.114Z,23.14
2023-04-05T07:51:18.113Z,23.14
2023-04-05T07:52:18.131Z,23.20
2023-04-05T07:53:18.185Z,23.17
2023-04-05T07:54:18.174Z,23.14
2023-04-05T07:55:18.179Z,23.17
2023-04-05T07:56:18.178Z,23.24
2023-04-05T07:57:18.210Z,23.25
2023-04-05T07:58:18.220Z,23.24
2023-04-05T07:59:18.338Z,23.27
2023-04-05T08:00:18.262Z,23.34
2023-04-05T08:01:18.231Z,23.34
2023-04-05T08:02:18.294Z,23.34
2023-04-05T08:03:18.356Z,23.28
2023-04-05T08:04:18.327Z,23.33
2023-04-05T08:05:18.339Z,23.29
2023-04-05T08:06:18.321Z,23.30
2023-04-05T08:07:18.343Z,23.29
2023-04-05T08:08:18.383Z,23.25
2023-04-05T08:09:18.385Z,23.27
2023-04-05T08:10:18.448Z,23.26
2023-04-05T08:11:18.498Z,23.27
2023-04-05T08:12:18.514Z,23.23
2023-04-05T08:13:18.577Z,23.22
2023-04-05T08:14:18.639Z,23.20
2023-04-05T08:15:18.633Z,23.22
2023-04-05T08:16:18.728Z,23.26
2023-04-05T08:17:18.763Z,23.22
2023-04-05T08:18:18.866Z,23.22
2023-04-05T08:19:18.853Z,23.18
2023-04-05T08:20:18.930Z,23.25
2023-04-05T08:21:18.974Z,23.21
2023-04-05T08:22:19.090Z,23.14
2023-04-05T08:23:19.141Z,23.11
2023-04-05T08:24:19.213Z,23.15
2023-04-05T08:25:19.269Z,23.14
2023-04-05T08:26:19.324Z,23.14
2023-04-05T08:27:19.355Z,23.11
2023-04-05T08:28:19.419Z,23.14
2023-04-05T08:29:19.503Z,23.05
2023-04-05T08:30:19.558Z,23.04
2023-04-05T08:31:19.672Z,23.05
2023-04-05T08:32:19.648Z,22.98
2023-04-05T08:33:19.732Z,22.98
2023-04-05T08:34:19.788Z,23.03
2023-04-05T08:35:19.875Z,23.03
2023-04-05T08:36:19.909Z,23.03
2023-04-05T08:37:19.964Z,23.05
2023-04-05T08:38:20.084Z,23.03
2023-04-05T08:39:20.073Z,23.05
2023-04-05T08:40:20.135Z,23.00
2023-04-05T08:41:20.195Z,23.09
2023-04-05T08:42:20.225Z,23.01
2023-04-05T08:43:20.596Z,23.03
2023-04-05T08:44:20.316Z,23.06
2023-04-05T08:45:20.379Z,23.01
2023-04-05T08:46:20.532Z,23.05
2023-04-05T08:47:20.481Z,23.00
2023-04-05T08:48:20.515Z,22.99
2023-04-05T08:49:20.561Z,22.98
2023-04-05T08:50:20.644Z,23.02
2023-04-05T08:51:20.630Z,22.96
2023-04-05T08:52:20.686Z,23.01
2023-04-05T08:53:20.686Z,22.95
2023-04-05T08:54:20.745Z,22.91
2023-04-05T08:55:20.765Z,22.89
2023-04-05T08:56:20.813Z,22.92
2023-04-05T08:57:20.822Z,22.88
2023-04-05T08:58:20.831Z,22.91
2023-04-05T08:59:20.923Z,22.91
2023-04-05T09:00:20.879Z,22.86
2023-04-05T09:01:20.915Z,22.86
2023-04-05T09:02:21.008Z,22.86
2023-04-05T09:03:21.011Z,22.87
2023-04-05T09:04:20.970Z,22.86
2023-04-05T09:05:21.026Z,22.89
2023-04-05T09:06:21.048Z,22.83
2023-04-05T09:07:21.040Z,22.86
2023-04-05T09:08:21.050Z,22.82
2023-04-05T09:09:21.081Z,22.82
2023-04-05T09:10:21.064Z,22.81
2023-04-05T09:11:21.071Z,22.82
2023-04-05T09:12:21.048Z,22.81
2023-04-05T09:13:21.072Z,22.76
2023-04-05T09:14:21.101Z,22.76
2023-04-05T09:15:21.077Z,22.74
2023-04-05T09:16:21.182Z,22.74
2023-04-05T09:17:21.123Z,22.74
2023-04-05T09:18:26.966Z,22.70
2023-04-05T09:19:22.154Z,22.71
2023-04-05T09:20:21.074Z,22.71
2023-04-05T09:21:21.087Z,22.70
2023-04-05T09:22:21.098Z,22.68
2023-04-05T09:23:21.055Z,22.64
2023-04-05T09:24:21.058Z,22.63
2023-04-05T09:25:21.065Z,22.62
2023-04-05T09:26:21.056Z,22.62
2023-04-05T09:27:21.043Z,22.66
2023-04-05T09:28:21.035Z,22.60
2023-04-05T09:29:21.039Z,22.63
2023-04-05T09:30:21.049Z,22.62
2023-04-05T09:31:21.014Z,22.62
2023-04-05T09:32:21.001Z,22.64
2023-04-05T09:33:21.125Z,22.64
2023-04-05T09:34:21.012Z,22.62
2023-04-05T09:35:21.095Z,22.58
2023-04-05T09:36:21.152Z,22.61
2023-04-05T09:37:21.151Z,22.56
2023-04-05T09:38:21.206Z,22.64
2023-04-05T09:39:21.256Z,22.60
2023-04-05T09:40:21.322Z,22.57
2023-04-05T09:41:21.365Z,22.57
2023-04-05T09:42:21.430Z,22.51
2023-04-05T09:43:21.485Z,22.57
2023-04-05T09:44:21.552Z,22.56
2023-04-05T09:45:21.673Z,22.54
2023-04-05T09:46:21.741Z,22.62
2023-04-05T09:47:21.703Z,22.46
2023-04-05T09:48:21.859Z,22.56
2023-04-05T09:49:21.832Z,22.56
2023-04-05T09:50:21.851Z,22.57
2023-04-05T09:51:21.918Z,22.52
2023-04-05T09:52:21.977Z,22.52
2023-04-05T09:53:22.030Z,22.58
2023-04-05T09:54:22.026Z,22.54
2023-04-05T09:55:22.070Z,22.50
2023-04-05T09:56:22.141Z,22.48
2023-04-05T09:57:22.146Z,22.54
2023-04-05T09:58:22.290Z,22.50
2023-04-05T09:59:22.327Z,22.47
2023-04-05T10:00:22.229Z,22.46
2023-04-05T10:01:22.373Z,22.43
2023-04-05T10:02:22.376Z,22.47
2023-04-05T10:03:22.592Z,22.43
2023-04-05T10:04:22.407Z,22.44
2023-04-05T10:05:22.405Z,22.43
2023-04-05T10:06:22.464Z,22.36
2023-04-05T10:07:22.527Z,22.38
2023-04-05T10:08:22.460Z,22.33
2023-04-05T10:09:22.521Z,22.32
2023-04-05T10:10:22.509Z,22.29
2023-04-05T10:11:22.505Z,22.31
2023-04-05T10:12:22.572Z,22.25
2023-04-05T10:13:22.516Z,22.25
2023-04-05T10:14:22.581Z,22.20
2023-04-05T10:15:22.595Z,22.22
2023-04-05T10:16:22.679Z,22.22
2023-04-05T10:17:22.604Z,22.14
2023-04-05T10:18:22.554Z,22.20
2023-04-05T10:19:22.561Z,22.19
2023-04-05T10:20:22.552Z,22.12
2023-04-05T10:21:22.519Z,22.12
2023-04-05T10:22:22.513Z,22.14
2023-04-05T10:23:22.541Z,22.14
2023-04-05T10:24:22.558Z,22.14
2023-04-05T10:25:22.553Z,22.08
2023-04-05T10:26:22.665Z,22.11
2023-04-05T10:27:22.617Z,22.08
2023-04-05T10:28:22.737Z,22.03
2023-04-05T10:29:22.792Z,22.06
2023-04-05T10:30:22.797Z,21.99
2023-04-05T10:31:36.378Z,22.00
2023-04-05T10:32:23.883Z,22.00
2023-04-05T10:33:23.024Z,21.93
2023-04-05T10:34:22.888Z,21.92
2023-04-05T10:35:22.847Z,21.95
2023-04-05T10:36:22.936Z,21.93
2023-04-05T10:37:22.799Z,21.95
2023-04-05T10:38:22.843Z,21.90
2023-04-05T10:39:22.870Z,21.92
2023-04-05T10:40:22.828Z,21.96
2023-04-05T10:41:22.836Z,21.92
2023-04-05T10:42:22.925Z,21.92
2023-04-05T10:43:22.973Z,21.91
2023-04-05T10:44:26.760Z,21.89
2023-04-05T10:45:23.064Z,21.85
2023-04-05T10:46:23.092Z,21.84
2023-04-05T10:47:23.103Z,21.90
2023-04-05T10:48:23.000Z,21.84
2023-04-05T10:49:23.030Z,21.83
2023-04-05T10:50:23.020Z,21.87
2023-04-05T10:51:22.978Z,21.82
2023-04-05T10:52:22.983Z,21.83
2023-04-05T10:53:22.974Z,21.82
2023-04-05T10:54:22.983Z,21.79
2023-04-05T10:55:22.963Z,21.75
2023-04-05T10:56:22.997Z,21.75
2023-04-05T10:57:22.957Z,21.78
2023-04-05T10:58:23.043Z,21.73
2023-04-05T10:59:22.979Z,21.70
2023-04-05T11:00:22.952Z,21.64
2023-04-05T11:01:22.986Z,21.64
2023-04-05T11:02:22.885Z,21.68
2023-04-05T11:03:23.008Z,21.60
2023-04-05T11:04:22.888Z,21.66
2023-04-05T11:05:22.937Z,21.71
2023-04-05T11:06:22.933Z,21.62
2023-04-05T11:07:22.919Z,21.69
2023-04-05T11:08:22.848Z,21.68
2023-04-05T11:09:22.890Z,21.60
2023-04-05T11:10:22.863Z,21.65
2023-04-05T11:11:22.844Z,21.57
2023-04-05T11:12:22.873Z,21.54
2023-04-05T11:13:22.860Z,21.57
2023-04-05T11:14:22.839Z,21.50
2023-04-05T11:15:22.797Z,21.53
2023-04-05T11:16:22.871Z,21.50
2023-04-05T11:17:22.818Z,21.50
2023-04-05T11:18:22.805Z,21.51
2023-04-05T11:19:22.790Z,21.56
2023-04-05T11:20:22.826Z,21.53
2023-04-05T11:21:22.777Z,21.45
2023-04-05T11:22:22.779Z,21.51
2023-04-05T11:23:22.758Z,21.46
2023-04-05T11:24:22.733Z,21.44
2023-04-05T11:25:22.729Z,21.46
2023-04-05T11:26:22.748Z,21.44
2023-04-05T11:27:22.901Z,21.44
2023-04-05T11:28:22.878Z,21.40
2023-04-05T11:29:22.941Z,21.44
2023-04-05T11:30:22.989Z,21.44
2023-04-05T11:31:23.200Z,21.37
2023-04-05T11:32:23.089Z,21.42
2023-04-05T11:33:23.191Z,21.34
2023-04-05T11:34:25.018Z,21.41
2023-04-05T11:35:23.386Z,21.29
2023-04-05T11:36:23.304Z,21.33
2023-04-05T11:37:23.365Z,21.32
2023-04-05T11:38:23.427Z,21.31
2023-04-05T11:39:23.740Z,21.35
2023-04-05T11:40:23.548Z,21.37
2023-04-05T11:41:23.553Z,21.30
2023-04-05T11:42:23.608Z,21.22
2023-04-05T11:43:23.693Z,21.34
2023-04-05T11:44:23.717Z,21.31
2023-04-05T11:45:23.824Z,21.31
2023-04-05T11:46:23.861Z,21.31
2023-04-05T11:47:23.915Z,21.24
2023-04-05T11:48:23.856Z,21.27
2023-04-05T11:49:23.963Z,21.24
2023-04-05T11:50:23.939Z,21.33
2023-04-05T11:51:24.003Z,21.28
2023-04-05T11:52:24.015Z,21.33
2023-04-05T11:53:24.084Z,21.25
2023-04-05T11:54:24.106Z,21.26
2023-04-05T11:55:24.146Z,21.30
2023-04-05T11:56:24.197Z,21.28
2023-04-05T11:57:24.144Z,21.22
2023-04-05T11:58:24.160Z,21.25
2023-04-05T11:59:24.299Z,21.19
2023-04-05T12:00:24.185Z,21.15
2023-04-05T12:01:24.311Z,21.11
2023-04-05T12:02:24.360Z,21.05
2023-04-05T12:03:24.326Z,21.04
2023-04-05T12:04:24.272Z,21.05
2023-04-05T12:05:24.233Z,21.04
2023-04-05T12:06:24.261Z,21.03
2023-04-05T12:07:24.262Z,21.01
2023-04-05T12:08:24.230Z,21.00
2023-04-05T12:09:24.218Z,20.99
2023-04-05T12:10:24.239Z,21.03
2023-04-05T12:11:24.230Z,21.00
2023-04-05T12:12:24.210Z,20.90
2023-04-05T12:13:24.244Z,20.96
2023-04-05T12:14:24.161Z,20.96
2023-04-05T12:15:24.215Z,21.02
2023-04-05T12:16:24.318Z,20.91
2023-04-05T12:17:24.327Z,20.88
2023-04-05T12:18:24.315Z,20.89
2023-04-05T12:19:24.380Z,20.95
2023-04-05T12:20:24.408Z,20.89
2023-04-05T12:21:24.507Z,20.89
2023-04-05T12:22:24.582Z,20.91
2023-04-05T12:23:24.610Z,20.81
2023-04-05T12:24:24.663Z,20.87
2023-04-05T12:25:24.798Z,20.84
2023-04-05T12:26:24.914Z,20.90
2023-04-05T12:27:24.843Z,20.91
2023-04-05T12:28:24.941Z,20.86
2023-04-05T12:29:24.967Z,20.84
2023-04-05T12:30:25.070Z,20.83
2023-04-05T12:31:25.157Z,20.84
2023-04-05T12:32:25.176Z,20.81
2023-04-05T12:33:25.189Z,20.79
2023-04-05T12:34:25.274Z,20.79
2023-04-05T12:35:25.320Z,20.77
2023-04-05T12:36:25.404Z,20.79
2023-04-05T12:37:25.457Z,20.79
2023-04-05T12:38:25.470Z,20.75
2023-04-05T12:39:25.558Z,20.72
2023-04-05T12:40:25.604Z,20.75
2023-04-05T12:41:25.645Z,20.68
2023-04-05T12:42:25.706Z,20.68
2023-04-05T12:43:25.729Z,20.67
2023-04-05T12:44:25.752Z,20.67
2023-04-05T12:45:25.838Z,20.63
2023-04-05T12:46:25.891Z,20.62
2023-04-05T12:47:25.951Z,20.66
2023-04-05T12:48:26.025Z,20.63
2023-04-05T12:49:25.994Z,20.61
2023-04-05T12:50:26.026Z,20.61
2023-04-05T12:51:26.026Z,20.63
2023-04-05T12:52:26.091Z,20.53